createdAt,value
2023-05-05T00:01:09.287Z,10.20
2023-05-05T00:03:36.380Z,10.36
2023-05-05T00:06:03.182Z,10.41
2023-05-05T00:08:29.976Z,10.26
2023-05-05T00:10:57.630Z,10.24
2023-05-05T00:13:24.626Z,10.40
2023-05-05T00:15:52.124Z,10.38
2023-05-05T00:18:18.830Z,10.30
2023-05-05T00:20:47.146Z,10.36
2023-05-05T00:23:17.294Z,10.42
2023-05-05T00:25:43.970Z,10.41
2023-05-05T00:28:10.621Z,10.27
2023-05-05T00:30:37.577Z,10.35
2023-05-05T00:33:04.381Z,10.40
2023-05-05T00:35:31.189Z,10.57
2023-05-05T00:37:58.307Z,10.48
2023-05-05T00:40:25.329Z,10.54
2023-05-05T00:42:52.418Z,10.42
2023-05-05T00:45:20.164Z,10.73
2023-05-05T00:47:49.325Z,10.53
2023-05-05T00:50:26.834Z,10.29
2023-05-05T00:52:56.773Z,10.22
2023-05-05T00:55:23.541Z,10.19
2023-05-05T00:57:50.452Z,10.18
2023-05-05T01:00:17.918Z,10.22
2023-05-05T01:02:44.926Z,10.11
2023-05-05T01:05:13.252Z,9.76
2023-05-05T01:08:19.630Z,10.11
2023-05-05T01:10:49.132Z,10.12
2023-05-05T01:14:01.431Z,10.30
2023-05-05T01:16:29.375Z,10.32
2023-05-05T01:19:08.007Z,10.17
2023-05-05T01:21:46.982Z,10.15
2023-05-05T01:24:22.662Z,10.10
2023-05-05T01:27:07.777Z,10.02
2023-05-05T01:29:40.391Z,10.14
2023-05-05T01:32:11.158Z,10.16
2023-05-05T01:34:42.109Z,10.09
2023-05-05T01:37:18.607Z,9.93
2023-05-05T01:39:45.312Z,9.94
2023-05-05T01:42:15.176Z,9.99
2023-05-05T01:44:43.536Z,10.14
2023-05-05T01:47:15.107Z,10.19
2023-05-05T01:49:43.225Z,10.18
2023-05-05T01:52:09.886Z,10.14
2023-05-05T01:54:36.549Z,10.12
2023-05-05T01:57:04.844Z,10.18
2023-05-05T01:59:32.354Z,10.21
2023-05-05T02:02:00.285Z,10.24
2023-05-05T02:04:27.300Z,10.20
2023-05-05T02:06:54.194Z,9.92
2023-05-05T02:09:20.960Z,9.98
2023-05-05T02:11:47.645Z,9.94
2023-05-05T02:14:14.225Z,9.88
2023-05-05T02:16:41.354Z,9.95
2023-05-05T02:19:08.068Z,9.94
2023-05-05T02:21:34.880Z,9.88
2023-05-05T02:24:01.800Z,10.00
2023-05-05T02:26:28.510Z,9.91
2023-05-05T02:29:02.069Z,10.04
2023-05-05T02:31:28.897Z,10.02
2023-05-05T02:33:56.336Z,9.84
2023-05-05T02:36:23.567Z,9.58
2023-05-05T02:38:56.207Z,9.53
2023-05-05T02:41:22.914Z,9.53
2023-05-05T02:43:50.082Z,9.69
2023-05-05T02:46:17.707Z,9.94
2023-05-05T02:48:44.896Z,9.63
2023-05-05T02:51:11.628Z,9.74
2023-05-05T02:53:38.315Z,9.70
2023-05-05T02:56:22.505Z,9.89
2023-05-05T02:58:53.131Z,9.81
2023-05-05T03:01:53.348Z,9.64
2023-05-05T03:04:30.100Z,9.61
2023-05-05T03:06:58.862Z,9.63
2023-05-05T03:09:38.111Z,9.62
2023-05-05T03:12:06.936Z,9.73
2023-05-05T03:14:36.502Z,9.78
2023-05-05T03:17:03.405Z,9.71
2023-05-05T03:19:30.078Z,9.62
2023-05-05T03:21:56.699Z,9.58
2023-05-05T03:24:23.346Z,9.66
2023-05-05T03:26:50.032Z,9.67
2023-05-05T03:29:17.252Z,9.78
2023-05-05T03:31:44.056Z,9.82
2023-05-05T03:34:10.767Z,9.76
2023-05-05T03:36:38.194Z,9.40
2023-05-05T03:39:04.949Z,9.57
2023-05-05T03:41:31.631Z,9.63
2023-05-05T03:43:58.228Z,9.93
2023-05-05T03:46:25.092Z,9.78
2023-05-05T03:48:51.863Z,9.80
2023-05-05T03:51:18.541Z,10.06
2023-05-05T03:53:45.260Z,9.98
2023-05-05T03:56:11.946Z,9.75
2023-05-05T03:58:38.661Z,9.98
2023-05-05T04:01:05.443Z,9.69
2023-05-05T04:03:32.390Z,9.71
2023-05-05T04:05:59.261Z,9.85
2023-05-05T04:08:25.870Z,9.87
2023-05-05T04:10:52.640Z,10.11
2023-05-05T04:13:19.424Z,9.82
2023-05-05T04:15:46.579Z,9.83
2023-05-05T04:18:13.236Z,9.94
2023-05-05T04:20:39.892Z,9.79
2023-05-05T04:23:06.573Z,9.53
2023-05-05T04:25:33.316Z,9.92
2023-05-05T04:27:59.994Z,9.76
2023-05-05T04:30:26.780Z,9.62
2023-05-05T04:32:53.621Z,9.78
2023-05-05T04:35:20.461Z,9.89
2023-05-05T04:37:47.203Z,9.83
2023-05-05T04:40:13.889Z,9.81
2023-05-05T04:42:40.528Z,9.71
2023-05-05T04:45:08.575Z,10.02
2023-05-05T04:47:39.094Z,10.26
2023-05-05T04:50:07.295Z,10.39
2023-05-05T04:52:34.238Z,10.19
2023-05-05T04:55:01.303Z,10.30
2023-05-05T04:57:28.072Z,10.33
2023-05-05T04:59:54.794Z,10.35
2023-05-05T05:02:21.658Z,10.48
2023-05-05T05:04:48.404Z,10.60
2023-05-05T05:07:15.177Z,10.42
2023-05-05T05:09:41.905Z,10.62
2023-05-05T05:12:09.691Z,10.62
2023-05-05T05:14:39.457Z,10.53
2023-05-05T05:17:06.426Z,10.71
2023-05-05T05:19:33.113Z,10.92
2023-05-05T05:21:59.720Z,10.70
2023-05-05T05:24:26.514Z,10.57
2023-05-05T05:26:53.177Z,11.13
2023-05-05T05:29:20.457Z,11.09
2023-05-05T05:31:47.215Z,11.17
2023-05-05T05:34:13.832Z,11.18
2023-05-05T05:36:40.685Z,10.90
2023-05-05T05:39:07.406Z,11.51
2023-05-05T05:41:34.080Z,11.43
2023-05-05T05:44:00.760Z,11.69
2023-05-05T05:46:27.580Z,11.83
2023-05-05T05:48:54.403Z,11.22
2023-05-05T05:51:21.140Z,11.44
2023-05-05T05:53:47.941Z,11.78
2023-05-05T05:56:14.572Z,11.81
2023-05-05T05:58:42.419Z,11.87
2023-05-05T06:01:09.160Z,11.98
2023-05-05T06:03:36.229Z,11.89
2023-05-05T06:06:02.954Z,11.78
2023-05-05T06:08:29.631Z,11.66
2023-05-05T06:10:56.299Z,12.07
2023-05-05T06:13:23.062Z,12.12
2023-05-05T06:15:49.861Z,12.21
2023-05-05T06:18:16.692Z,12.12
2023-05-05T06:20:46.427Z,11.96
2023-05-05T06:23:13.149Z,12.46
2023-05-05T06:25:39.885Z,12.67
2023-05-05T06:28:07.275Z,12.87
2023-05-05T06:30:34.214Z,12.71
2023-05-05T06:33:00.967Z,12.99
2023-05-05T06:35:27.660Z,12.77
2023-05-05T06:37:54.418Z,12.73
2023-05-05T06:40:21.500Z,12.91
2023-05-05T06:42:48.192Z,13.28
2023-05-05T06:45:15.239Z,13.03
2023-05-05T06:47:42.413Z,13.45
2023-05-05T06:50:09.559Z,13.28
2023-05-05T06:52:36.457Z,13.09
2023-05-05T06:55:03.890Z,13.16
2023-05-05T06:57:30.593Z,13.02
2023-05-05T06:59:57.289Z,13.15
2023-05-05T07:02:25.982Z,13.30
2023-05-05T07:04:55.728Z,13.65
2023-05-05T07:07:22.694Z,13.62
2023-05-05T07:09:49.468Z,13.62
2023-05-05T07:12:16.105Z,13.84
2023-05-05T07:14:42.770Z,13.71
2023-05-05T07:17:09.405Z,13.58
2023-05-05T07:19:36.181Z,13.56
2023-05-05T07:22:02.794Z,14.44
2023-05-05T07:24:29.531Z,14.58
2023-05-05T07:26:56.244Z,14.49
2023-05-05T07:29:22.957Z,14.51
2023-05-05T07:31:49.721Z,14.79
2023-05-05T07:34:16.353Z,15.35
2023-05-05T07:36:43.065Z,15.39
2023-05-05T07:39:09.822Z,15.49
2023-05-05T07:41:36.545Z,15.32
2023-05-05T07:44:03.187Z,15.35
2023-05-05T07:46:29.941Z,15.55
2023-05-05T07:48:56.564Z,15.86
2023-05-05T07:51:23.218Z,15.70
2023-05-05T07:53:49.870Z,15.65
2023-05-05T07:56:16.507Z,15.70
2023-05-05T07:58:43.261Z,15.88
2023-05-05T08:01:11.332Z,15.73
2023-05-05T08:03:38.483Z,15.68
2023-05-05T08:06:10.343Z,15.80
2023-05-05T08:08:37.127Z,15.77
2023-05-05T08:11:03.952Z,15.49
2023-05-05T08:13:30.674Z,15.51
2023-05-05T08:15:57.461Z,15.65
2023-05-05T08:18:24.691Z,15.21
2023-05-05T08:20:52.007Z,15.26
2023-05-05T08:23:19.031Z,15.50
2023-05-05T08:25:45.715Z,15.74
2023-05-05T08:28:12.279Z,15.80
2023-05-05T08:30:39.238Z,16.05
2023-05-05T08:33:06.146Z,16.44
2023-05-05T08:35:32.862Z,16.58
2023-05-05T08:37:59.479Z,16.32
2023-05-05T08:40:29.876Z,16.78
2023-05-05T08:42:56.591Z,17.08
2023-05-05T08:45:23.256Z,16.74
2023-05-05T08:47:49.940Z,16.85
2023-05-05T08:50:16.597Z,17.24
2023-05-05T08:52:44.509Z,17.51
2023-05-05T08:55:24.488Z,17.41
2023-05-05T08:57:56.480Z,17.60
2023-05-05T09:00:23.554Z,17.87
2023-05-05T09:02:50.436Z,17.49
2023-05-05T09:05:17.442Z,17.05
2023-05-05T09:07:44.293Z,17.38
2023-05-05T09:10:11.603Z,17.93
2023-05-05T09:12:42.081Z,18.17
2023-05-05T09:15:13.274Z,18.35
2023-05-05T09:17:40.179Z,18.50
2023-05-05T09:20:11.202Z,18.52
2023-05-05T09:22:44.994Z,18.77
2023-05-05T09:25:15.682Z,18.34
2023-05-05T09:27:47.210Z,17.88
2023-05-05T09:30:31.997Z,18.60
2023-05-05T09:32:58.827Z,19.27
2023-05-05T09:35:26.399Z,18.96
2023-05-05T09:37:53.101Z,18.52
2023-05-05T09:40:21.353Z,17.83
2023-05-05T09:42:48.355Z,17.17
2023-05-05T09:45:18.077Z,17.58
2023-05-05T09:47:45.817Z,17.56
2023-05-05T09:50:15.915Z,17.83
2023-05-05T09:52:46.207Z,17.77
2023-05-05T09:55:19.565Z,17.87
2023-05-05T09:57:47.516Z,17.64
2023-05-05T10:00:14.735Z,17.75
2023-05-05T10:02:41.979Z,17.62
2023-05-05T10:05:13.433Z,17.75
2023-05-05T10:07:42.002Z,18.15
2023-05-05T10:10:13.369Z,18.74
2023-05-05T10:12:40.189Z,19.31
2023-05-05T10:15:07.928Z,19.90
2023-05-05T10:18:05.989Z,19.77
2023-05-05T10:20:33.855Z,19.11
2023-05-05T10:23:00.505Z,19.12
2023-05-05T10:25:33.533Z,18.66
2023-05-05T10:28:01.018Z,18.21
2023-05-05T10:30:31.505Z,19.19
2023-05-05T10:35:40.913Z,18.42
2023-05-05T10:38:08.669Z,18.06
2023-05-05T10:40:35.395Z,18.15
2023-05-05T10:43:02.021Z,18.27
2023-05-05T10:45:29.060Z,18.14
2023-05-05T10:47:57.257Z,17.92
2023-05-05T10:50:33.069Z,17.38
2023-05-05T10:53:20.884Z,17.28
2023-05-05T10:56:08.788Z,17.79
2023-05-05T10:58:55.356Z,17.30
2023-05-05T11:01:36.244Z,17.60
2023-05-05T11:04:21.907Z,17.92
2023-05-05T11:07:11.060Z,17.99
2023-05-05T11:09:57.186Z,18.96
2023-05-05T11:12:23.899Z,18.86
2023-05-05T11:15:27.518Z,18.14
2023-05-05T11:18:01.933Z,18.68
2023-05-05T11:20:36.061Z,19.11
2023-05-05T11:23:02.786Z,18.58
2023-05-05T11:25:36.157Z,18.67
2023-05-05T11:28:06.904Z,18.69
2023-05-05T11:30:33.862Z,19.56
2023-05-05T11:33:23.121Z,19.77
2023-05-05T11:35:59.042Z,19.75
2023-05-05T11:38:41.764Z,19.76
2023-05-05T11:41:32.000Z,19.16
2023-05-05T11:44:18.548Z,20.16
2023-05-05T11:46:51.175Z,19.50
2023-05-05T11:49:37.175Z,19.31
2023-05-05T11:52:04.557Z,19.72
2023-05-05T11:54:31.536Z,19.34
2023-05-05T11:56:59.326Z,19.36
2023-05-05T11:59:26.144Z,19.15
2023-05-05T12:01:52.831Z,18.87
2023-05-05T12:04:19.707Z,18.90
2023-05-05T12:06:46.422Z,17.87
2023-05-05T12:09:19.590Z,18.16
2023-05-05T12:11:49.673Z,18.21
2023-05-05T12:14:16.366Z,18.41
2023-05-05T12:17:01.406Z,19.54
2023-05-05T12:19:30.416Z,18.98
2023-05-05T12:21:57.197Z,18.68
2023-05-05T12:24:23.782Z,19.37
2023-05-05T12:26:50.651Z,19.60
2023-05-05T12:29:27.733Z,20.04
2023-05-05T12:31:54.605Z,20.01
2023-05-05T12:34:21.395Z,19.73
2023-05-05T12:36:48.031Z,19.87
2023-05-05T12:39:14.750Z,19.50
2023-05-05T12:41:41.390Z,20.21
2023-05-05T12:44:08.007Z,19.86
2023-05-05T12:46:47.190Z,20.19
2023-05-05T12:49:14.061Z,20.06
2023-05-05T12:51:55.559Z,20.53
2023-05-05T12:54:24.379Z,20.17
2023-05-05T12:56:51.311Z,20.27
2023-05-05T12:59:20.988Z,19.62
2023-05-05T13:01:55.056Z,19.60
2023-05-05T13:04:23.211Z,20.42
2023-05-05T13:06:54.052Z,19.93
2023-05-05T13:09:30.460Z,19.38
2023-05-05T13:11:57.884Z,20.61
2023-05-05T13:14:24.525Z,20.66
2023-05-05T13:16:51.303Z,21.41
2023-05-05T13:19:17.993Z,21.42
2023-05-05T13:21:44.625Z,21.58
2023-05-05T13:24:22.979Z,21.20
2023-05-05T13:26:55.901Z,21.26
2023-05-05T13:29:24.327Z,21.50
2023-05-05T13:31:54.018Z,21.73
2023-05-05T13:34:20.770Z,21.18
2023-05-05T13:36:47.449Z,21.01
2023-05-05T13:39:14.384Z,21.31
2023-05-05T13:41:41.048Z,21.33
2023-05-05T13:44:07.724Z,21.91
2023-05-05T13:46:34.560Z,21.83
2023-05-05T13:49:01.281Z,21.87
2023-05-05T13:51:27.909Z,20.47
2023-05-05T13:53:56.707Z,20.10
2023-05-05T13:56:26.205Z,20.48
2023-05-05T13:58:53.294Z,21.24
2023-05-05T14:01:20.237Z,21.10
2023-05-05T14:03:47.057Z,21.74
2023-05-05T14:06:13.722Z,22.16
2023-05-05T14:08:40.454Z,21.36
2023-05-05T14:11:07.136Z,20.71
2023-05-05T14:13:33.810Z,20.93
2023-05-05T14:16:00.597Z,20.78
2023-05-05T14:18:28.144Z,20.87
2023-05-05T14:20:54.879Z,20.79
2023-05-05T14:23:21.673Z,20.85
2023-05-05T14:25:48.387Z,20.93
2023-05-05T14:28:15.016Z,20.55
2023-05-05T14:30:42.085Z,21.21
2023-05-05T14:33:08.719Z,21.28
2023-05-05T14:35:35.400Z,21.28
2023-05-05T14:38:01.975Z,21.49
2023-05-05T14:40:30.320Z,20.99
2023-05-05T14:42:57.745Z,20.86
2023-05-05T14:45:24.555Z,20.16
2023-05-05T14:47:51.218Z,20.49
2023-05-05T14:50:17.878Z,20.36
2023-05-05T14:52:44.758Z,20.55
2023-05-05T14:55:11.750Z,20.64
2023-05-05T14:57:38.938Z,21.00
2023-05-05T15:00:07.098Z,20.63
2023-05-05T15:02:34.011Z,20.18
2023-05-05T15:05:00.880Z,19.93
2023-05-05T15:07:30.723Z,20.02
2023-05-05T15:09:57.512Z,20.07
2023-05-05T15:12:24.341Z,20.39
2023-05-05T15:14:51.001Z,20.31
2023-05-05T15:17:17.757Z,20.39
2023-05-05T15:19:44.450Z,20.65
2023-05-05T15:22:11.144Z,19.94
2023-05-05T15:24:38.062Z,20.21
2023-05-05T15:27:04.830Z,20.24
2023-05-05T15:29:31.643Z,19.85
2023-05-05T15:31:58.457Z,20.04
2023-05-05T15:34:26.209Z,20.24
2023-05-05T15:36:52.844Z,20.58
2023-05-05T15:39:19.667Z,20.08
2023-05-05T15:41:46.328Z,19.43
2023-05-05T15:44:12.940Z,18.89
2023-05-05T15:46:39.847Z,19.51
2023-05-05T15:49:06.672Z,19.20
2023-05-05T15:51:33.348Z,18.84
2023-05-05T15:54:00.353Z,19.12
2023-05-05T15:56:27.602Z,18.82
2023-05-05T15:58:54.413Z,19.18
2023-05-05T16:01:21.172Z,19.35
2023-05-05T16:03:47.894Z,19.69
2023-05-05T16:06:14.526Z,19.49
2023-05-05T16:08:41.228Z,18.37
2023-05-05T16:11:07.938Z,18.10
2023-05-05T16:13:34.683Z,18.00
2023-05-05T16:16:01.514Z,17.76
2023-05-05T16:18:28.217Z,18.13
2023-05-05T16:20:54.878Z,17.63
2023-05-05T16:23:21.597Z,18.14
2023-05-05T16:25:48.196Z,17.72
2023-05-05T16:28:14.773Z,17.49
2023-05-05T16:30:42.998Z,17.86
2023-05-05T16:33:09.930Z,17.86
2023-05-05T16:35:36.671Z,17.96
2023-05-05T16:38:03.340Z,17.85
2023-05-05T16:40:29.981Z,17.55
2023-05-05T16:42:56.576Z,17.05
2023-05-05T16:45:24.351Z,16.80
2023-05-05T16:47:51.374Z,17.17
2023-05-05T16:50:18.121Z,17.45
2023-05-05T16:52:44.711Z,17.87
2023-05-05T16:55:11.621Z,17.47
2023-05-05T16:57:38.509Z,17.08
2023-05-05T17:00:09.309Z,16.95
2023-05-05T17:02:36.214Z,17.00
2023-05-05T17:05:03.167Z,16.87
2023-05-05T17:07:29.913Z,16.79
2023-05-05T17:09:56.611Z,16.51
2023-05-05T17:12:23.329Z,16.26
2023-05-05T17:14:50.062Z,16.01
2023-05-05T17:17:16.981Z,15.65
2023-05-05T17:19:44.884Z,15.14
2023-05-05T17:22:11.528Z,15.10
2023-05-05T17:24:38.198Z,15.06
2023-05-05T17:27:04.904Z,15.51
2023-05-05T17:29:32.767Z,15.56
2023-05-05T17:31:59.454Z,15.27
2023-05-05T17:34:26.270Z,15.51
2023-05-05T17:36:52.912Z,15.44
2023-05-05T17:39:19.657Z,15.54
2023-05-05T17:41:46.448Z,15.54
2023-05-05T17:44:13.115Z,15.62
2023-05-05T17:46:40.398Z,15.34
2023-05-05T17:49:07.094Z,14.93
2023-05-05T17:51:33.741Z,14.88
2023-05-05T17:54:00.401Z,14.51
2023-05-05T17:56:27.048Z,14.36
2023-05-05T17:58:53.821Z,13.92
2023-05-05T18:01:24.185Z,13.01
2023-05-05T18:03:50.988Z,12.99
2023-05-05T18:06:17.829Z,13.28
2023-05-05T18:08:44.852Z,13.49
2023-05-05T18:11:11.565Z,13.65
2023-05-05T18:13:38.892Z,13.68
2023-05-05T18:16:06.192Z,13.62
2023-05-05T18:18:32.996Z,13.00
2023-05-05T18:20:59.687Z,13.00
2023-05-05T18:23:26.790Z,13.04
2023-05-05T18:25:53.461Z,13.12
2023-05-05T18:28:20.559Z,13.25
2023-05-05T18:30:47.263Z,13.02
2023-05-05T18:33:14.044Z,12.87
2023-05-05T18:35:40.960Z,12.70
2023-05-05T18:38:07.698Z,12.04
2023-05-05T18:40:34.386Z,12.18
2023-05-05T18:43:01.018Z,12.29
2023-05-05T18:45:27.790Z,12.17
2023-05-05T18:47:54.577Z,12.25
2023-05-05T18:50:21.317Z,12.03
2023-05-05T18:52:48.030Z,11.60
2023-05-05T18:55:14.749Z,11.14
2023-05-05T18:57:41.356Z,10.88
2023-05-05T19:00:09.194Z,10.34
2023-05-05T19:02:35.916Z,10.42
2023-05-05T19:05:03.790Z,10.38
2023-05-05T19:07:35.441Z,10.26
2023-05-05T19:10:03.928Z,10.33
2023-05-05T19:12:30.746Z,9.90
2023-05-05T19:14:57.461Z,9.81
2023-05-05T19:17:24.348Z,10.42
2023-05-05T19:19:51.107Z,10.49
2023-05-05T19:22:17.836Z,10.74
2023-05-05T19:24:44.515Z,10.47
2023-05-05T19:27:15.515Z,9.50
2023-05-05T19:29:43.191Z,9.11
2023-05-05T19:32:09.927Z,9.39
2023-05-05T19:34:36.664Z,9.64
2023-05-05T19:37:03.322Z,8.85
2023-05-05T19:39:29.964Z,8.28
2023-05-05T19:41:56.631Z,8.41
2023-05-05T19:44:23.851Z,8.41
2023-05-05T19:46:50.693Z,8.29
2023-05-05T19:49:17.398Z,8.43
2023-05-05T19:51:46.349Z,8.79
2023-05-05T19:54:13.196Z,8.37
2023-05-05T19:56:40.485Z,8.40
2023-05-05T19:59:07.222Z,8.72
2023-05-05T20:01:34.962Z,9.27
2023-05-05T20:04:03.170Z,9.13
2023-05-05T20:06:29.811Z,8.59
2023-05-05T20:08:56.441Z,8.85
2023-05-05T20:11:23.130Z,8.59
2023-05-05T20:13:49.965Z,8.11
2023-05-05T20:16:16.703Z,7.88
2023-05-05T20:18:43.724Z,7.97
2023-05-05T20:21:10.383Z,7.42
2023-05-05T20:23:37.303Z,7.54
2023-05-05T20:26:03.928Z,7.77
2023-05-05T20:28:31.698Z,7.74
2023-05-05T20:30:58.473Z,7.47
2023-05-05T20:33:25.362Z,7.48
2023-05-05T20:35:52.071Z,7.05
2023-05-05T20:38:18.707Z,6.67
2023-05-05T20:40:45.686Z,6.92
2023-05-05T20:43:12.325Z,7.22
2023-05-05T20:45:39.020Z,7.35
2023-05-05T20:48:07.429Z,7.77
2023-05-05T20:50:34.155Z,7.87
2023-05-05T20:53:00.836Z,7.24
2023-05-05T20:55:27.513Z,7.21
2023-05-05T20:57:54.725Z,6.84
2023-05-05T21:00:21.525Z,6.78
2023-05-05T21:02:48.279Z,7.01
2023-05-05T21:05:15.006Z,7.25
2023-05-05T21:07:41.681Z,7.03
2023-05-05T21:10:08.970Z,6.97
2023-05-05T21:12:35.992Z,7.16
2023-05-05T21:15:02.796Z,6.89
2023-05-05T21:17:29.555Z,7.45
2023-05-05T21:19:56.919Z,6.85
2023-05-05T21:22:23.653Z,7.04
2023-05-05T21:24:50.333Z,7.29
2023-05-05T21:27:17.038Z,7.04
2023-05-05T21:29:43.716Z,6.90
2023-05-05T21:32:11.167Z,6.70
2023-05-05T21:34:38.286Z,6.65
2023-05-05T21:37:05.189Z,6.88
2023-05-05T21:39:33.116Z,7.44
2023-05-05T21:42:00.548Z,7.74
2023-05-05T21:44:28.292Z,7.72
2023-05-05T21:46:55.463Z,7.86
2023-05-05T21:49:22.246Z,8.10
2023-05-05T21:51:48.907Z,8.14
2023-05-05T21:54:15.877Z,8.27
2023-05-05T21:56:42.737Z,8.19
2023-05-05T21:59:09.441Z,8.12
2023-05-05T22:01:36.917Z,8.45
2023-05-05T22:04:03.930Z,8.76
2023-05-05T22:06:30.660Z,8.59
2023-05-05T22:08:57.288Z,8.40
2023-05-05T22:11:24.132Z,8.49
2023-05-05T22:13:50.788Z,8.05
2023-05-05T22:16:17.749Z,8.01
2023-05-05T22:18:44.492Z,8.07
2023-05-05T22:21:11.097Z,7.88
2023-05-05T22:23:39.065Z,7.77
2023-05-05T22:26:05.767Z,7.70
2023-05-05T22:28:32.532Z,7.60
2023-05-05T22:30:59.184Z,7.91
2023-05-05T22:33:25.897Z,8.28
2023-05-05T22:35:53.275Z,7.98
2023-05-05T22:38:19.954Z,8.16
2023-05-05T22:40:46.620Z,8.32
2023-05-05T22:43:13.204Z,7.67
2023-05-05T22:45:39.833Z,7.32
2023-05-05T22:48:06.529Z,7.54
2023-05-05T22:50:33.257Z,7.91
2023-05-05T22:52:59.983Z,8.17
2023-05-05T22:55:27.333Z,8.24
2023-05-05T22:57:54.021Z,8.33
2023-05-05T23:00:20.621Z,8.38
2023-05-05T23:02:47.467Z,8.29
2023-05-05T23:05:14.150Z,8.26
2023-05-05T23:07:40.963Z,8.26
2023-05-05T23:10:08.042Z,8.39
2023-05-05T23:12:34.757Z,8.60
2023-05-05T23:15:01.394Z,8.69
2023-05-05T23:17:28.069Z,8.46
2023-05-05T23:19:54.880Z,8.49
2023-05-05T23:22:21.549Z,8.67
2023-05-05T23:24:48.175Z,8.60
2023-05-05T23:27:14.886Z,8.44
2023-05-05T23:29:41.649Z,8.23
2023-05-05T23:32:08.356Z,8.43
2023-05-05T23:34:35.038Z,8.45
2023-05-05T23:37:02.510Z,8.48
2023-05-05T23:39:30.615Z,8.49
2023-05-05T23:41:57.590Z,8.19
2023-05-05T23:44:24.242Z,8.18
2023-05-05T23:46:51.097Z,8.17
2023-05-05T23:49:17.806Z,8.18
2023-05-05T23:51:44.528Z,8.13
2023-05-05T23:54:11.180Z,8.24
2023-05-05T23:56:37.934Z,8.37
2023-05-05T23:59:05.504Z,8.32
